sensor_id;sensor_type;location;lat;lon;timestamp;temperature;humidity
59208;DHT22;44977;53.132;6.408;2023-07-13T00:03:39;17.00;99.90
59208;DHT22;44977;53.132;6.408;2023-07-13T00:08:42;17.00;99.90
59208;DHT22;44977;53.132;6.408;2023-07-13T00:13:43;17.00;99.90
59208;DHT22;44977;53.132;6.408;2023-07-13T00:18:45;17.00;99.90
59208;DHT22;44977;53.132;6.408;2023-07-13T00:23:46;17.00;99.90
59208;DHT22;44977;53.132;6.408;2023-07-13T00:28:47;17.00;99.90
59208;DHT22;44977;53.132;6.408;2023-07-13T00:33:47;17.00;99.90
59208;DHT22;44977;53.132;6.408;2023-07-13T00:38:48;16.90;99.90
59208;DHT22;44977;53.132;6.408;2023-07-13T00:43:49;16.90;99.90
59208;DHT22;44977;53.132;6.408;2023-07-13T00:48:51;16.90;99.90
59208;DHT22;44977;53.132;6.408;2023-07-13T00:53:53;16.90;99.90
59208;DHT22;44977;53.132;6.408;2023-07-13T00:58:55;16.90;99.90
59208;DHT22;44977;53.132;6.408;2023-07-13T01:03:56;16.90;99.90
59208;DHT22;44977;53.132;6.408;2023-07-13T01:08:58;16.80;99.90
59208;DHT22;44977;53.132;6.408;2023-07-13T01:13:59;16.80;99.90
59208;DHT22;44977;53.132;6.408;2023-07-13T01:19:05;16.70;99.90
59208;DHT22;44977;53.132;6.408;2023-07-13T01:24:07;16.70;99.90
59208;DHT22;44977;53.132;6.408;2023-07-13T01:29:08;16.70;99.90
59208;DHT22;44977;53.132;6.408;2023-07-13T01:34:08;16.70;99.90
59208;DHT22;44977;53.132;6.408;2023-07-13T01:39:09;16.70;99.90
59208;DHT22;44977;53.132;6.408;2023-07-13T01:44:10;16.70;99.90
59208;DHT22;44977;53.132;6.408;2023-07-13T01:49:10;16.70;99.90
59208;DHT22;44977;53.132;6.408;2023-07-13T01:54:11;16.70;99.90
59208;DHT22;44977;53.132;6.408;2023-07-13T01:59:12;16.60;99.90
59208;DHT22;44977;53.132;6.408;2023-07-13T02:04:12;16.60;99.90
59208;DHT22;44977;53.132;6.408;2023-07-13T02:09:13;16.60;99.90
59208;DHT22;44977;53.132;6.408;2023-07-13T02:14:14;16.60;99.90
59208;DHT22;44977;53.132;6.408;2023-07-13T02:19:15;16.60;99.90
59208;DHT22;44977;53.132;6.408;2023-07-13T02:24:16;16.60;99.90
59208;DHT22;44977;53.132;6.408;2023-07-13T02:29:19;16.50;99.90
59208;DHT22;44977;53.132;6.408;2023-07-13T02:34:20;16.50;99.90
59208;DHT22;44977;53.132;6.408;2023-07-13T02:39:21;16.50;99.90
59208;DHT22;44977;53.132;6.408;2023-07-13T02:44:22;16.40;99.90
59208;DHT22;44977;53.132;6.408;2023-07-13T02:49:22;16.40;99.90
59208;DHT22;44977;53.132;6.408;2023-07-13T02:54:23;16.40;99.90
59208;DHT22;44977;53.132;6.408;2023-07-13T02:59:24;16.30;99.90
59208;DHT22;44977;53.132;6.408;2023-07-13T03:04:24;16.30;99.90
59208;DHT22;44977;53.132;6.408;2023-07-13T03:09:25;16.20;99.90
59208;DHT22;44977;53.132;6.408;2023-07-13T03:14:26;16.20;99.90
59208;DHT22;44977;53.132;6.408;2023-07-13T03:19:27;16.20;99.90
59208;DHT22;44977;53.132;6.408;2023-07-13T03:24:28;16.20;99.90
59208;DHT22;44977;53.132;6.408;2023-07-13T03:29:28;16.20;99.90
59208;DHT22;44977;53.132;6.408;2023-07-13T03:34:29;16.10;99.90
59208;DHT22;44977;53.132;6.408;2023-07-13T03:39:30;16.10;99.90
59208;DHT22;44977;53.132;6.408;2023-07-13T03:44:31;16.20;99.90
59208;DHT22;44977;53.132;6.408;2023-07-13T03:49:32;16.20;99.90
59208;DHT22;44977;53.132;6.408;2023-07-13T03:54:32;16.20;99.90
59208;DHT22;44977;53.132;6.408;2023-07-13T03:59:33;16.20;99.90
59208;DHT22;44977;53.132;6.408;2023-07-13T04:04:34;16.20;99.90
59208;DHT22;44977;53.132;6.408;2023-07-13T04:09:35;16.20;99.90
59208;DHT22;44977;53.132;6.408;2023-07-13T04:14:37;16.30;99.90
59208;DHT22;44977;53.132;6.408;2023-07-13T04:19:37;16.20;99.90
59208;DHT22;44977;53.132;6.408;2023-07-13T04:24:38;16.30;99.90
59208;DHT22;44977;53.132;6.408;2023-07-13T04:29:39;16.30;99.90
59208;DHT22;44977;53.132;6.408;2023-07-13T04:34:39;16.30;99.90
59208;DHT22;44977;53.132;6.408;2023-07-13T04:39:40;16.30;99.90
59208;DHT22;44977;53.132;6.408;2023-07-13T04:44:41;16.40;99.90
59208;DHT22;44977;53.132;6.408;2023-07-13T04:49:42;16.40;99.90
59208;DHT22;44977;53.132;6.408;2023-07-13T04:54:42;16.50;99.90
59208;DHT22;44977;53.132;6.408;2023-07-13T04:59:43;16.60;99.90
59208;DHT22;44977;53.132;6.408;2023-07-13T05:04:46;16.50;99.90
59208;DHT22;44977;53.132;6.408;2023-07-13T05:09:48;16.60;99.90
59208;DHT22;44977;53.132;6.408;2023-07-13T05:14:48;16.60;99.90
59208;DHT22;44977;53.132;6.408;2023-07-13T05:19:50;16.70;99.90
59208;DHT22;44977;53.132;6.408;2023-07-13T05:24:50;16.80;99.90
59208;DHT22;44977;53.132;6.408;2023-07-13T05:29:51;16.80;99.90
59208;DHT22;44977;53.132;6.408;2023-07-13T05:34:52;16.90;99.90
59208;DHT22;44977;53.132;6.408;2023-07-13T05:39:53;17.00;99.90
59208;DHT22;44977;53.132;6.408;2023-07-13T05:44:53;17.10;99.90
59208;DHT22;44977;53.132;6.408;2023-07-13T05:49:54;17.20;99.90
59208;DHT22;44977;53.132;6.408;2023-07-13T05:54:55;17.30;99.90
59208;DHT22;44977;53.132;6.408;2023-07-13T05:59:55;17.50;99.90
59208;DHT22;44977;53.132;6.408;2023-07-13T06:04:56;17.60;99.90
59208;DHT22;44977;53.132;6.408;2023-07-13T06:09:57;17.70;99.90
59208;DHT22;44977;53.132;6.408;2023-07-13T06:14:59;17.80;99.90
59208;DHT22;44977;53.132;6.408;2023-07-13T06:20:00;18.00;99.90
59208;DHT22;44977;53.132;6.408;2023-07-13T06:25:01;18.10;99.90
59208;DHT22;44977;53.132;6.408;2023-07-13T06:30:02;18.30;99.90
59208;DHT22;44977;53.132;6.408;2023-07-13T06:35:03;18.40;99.90
59208;DHT22;44977;53.132;6.408;2023-07-13T06:40:04;18.50;99.90
59208;DHT22;44977;53.132;6.408;2023-07-13T06:45:05;18.70;99.90
59208;DHT22;44977;53.132;6.408;2023-07-13T06:50:06;18.80;99.90
59208;DHT22;44977;53.132;6.408;2023-07-13T06:55:07;19.00;99.90
59208;DHT22;44977;53.132;6.408;2023-07-13T07:00:09;19.30;99.90
59208;DHT22;44977;53.132;6.408;2023-07-13T07:05:10;19.40;99.90
59208;DHT22;44977;53.132;6.408;2023-07-13T07:10:11;19.40;99.90
59208;DHT22;44977;53.132;6.408;2023-07-13T07:15:12;19.30;99.90
59208;DHT22;44977;53.132;6.408;2023-07-13T07:20:13;19.20;99.90
59208;DHT22;44977;53.132;6.408;2023-07-13T07:25:13;19.10;99.90
59208;DHT22;44977;53.132;6.408;2023-07-13T07:30:14;19.10;99.90
59208;DHT22;44977;53.132;6.408;2023-07-13T07:35:15;19.10;99.90
59208;DHT22;44977;53.132;6.408;2023-07-13T07:40:16;19.00;99.90
59208;DHT22;44977;53.132;6.408;2023-07-13T07:45:17;18.90;99.90
59208;DHT22;44977;53.132;6.408;2023-07-13T07:50:18;18.90;99.90
59208;DHT22;44977;53.132;6.408;2023-07-13T07:55:20;18.80;99.90
59208;DHT22;44977;53.132;6.408;2023-07-13T08:00:21;18.80;99.90
59208;DHT22;44977;53.132;6.408;2023-07-13T08:05:21;18.80;99.90
59208;DHT22;44977;53.132;6.408;2023-07-13T08:10:22;18.80;99.90
59208;DHT22;44977;53.132;6.408;2023-07-13T08:15:23;18.90;99.90
59208;DHT22;44977;53.132;6.408;2023-07-13T08:20:24;19.00;99.90
59208;DHT22;44977;53.132;6.408;2023-07-13T08:25:24;19.10;99.90
59208;DHT22;44977;53.132;6.408;2023-07-13T08:30:25;19.20;99.90
59208;DHT22;44977;53.132;6.408;2023-07-13T08:35:26;19.40;99.90
59208;DHT22;44977;53.132;6.408;2023-07-13T08:40:27;19.40;99.90
59208;DHT22;44977;53.132;6.408;2023-07-13T08:45:51;19.60;99.90
59208;DHT22;44977;53.132;6.408;2023-07-13T08:51:02;20.00;99.90
59208;DHT22;44977;53.132;6.408;2023-07-13T08:56:11;20.10;99.90
59208;DHT22;44977;53.132;6.408;2023-07-13T09:01:24;20.20;99.90
59208;DHT22;44977;53.132;6.408;2023-07-13T09:06:40;20.40;99.90
59208;DHT22;44977;53.132;6.408;2023-07-13T09:11:53;20.50;99.90
59208;DHT22;44977;53.132;6.408;2023-07-13T09:16:57;20.50;99.90
59208;DHT22;44977;53.132;6.408;2023-07-13T09:21:59;20.40;99.90
59208;DHT22;44977;53.132;6.408;2023-07-13T09:27:12;20.40;99.90
59208;DHT22;44977;53.132;6.408;2023-07-13T09:32:14;20.30;99.90
59208;DHT22;44977;53.132;6.408;2023-07-13T09:37:19;20.40;99.90
59208;DHT22;44977;53.132;6.408;2023-07-13T09:42:22;20.40;99.90
59208;DHT22;44977;53.132;6.408;2023-07-13T09:47:28;20.50;99.90
59208;DHT22;44977;53.132;6.408;2023-07-13T09:52:42;20.70;99.90
59208;DHT22;44977;53.132;6.408;2023-07-13T09:57:47;21.00;99.90
59208;DHT22;44977;53.132;6.408;2023-07-13T10:03:14;21.20;99.90
59208;DHT22;44977;53.132;6.408;2023-07-13T10:08:28;21.40;99.90
59208;DHT22;44977;53.132;6.408;2023-07-13T10:13:36;21.70;99.90
59208;DHT22;44977;53.132;6.408;2023-07-13T10:18:45;21.70;99.90
59208;DHT22;44977;53.132;6.408;2023-07-13T10:23:53;21.60;99.90
59208;DHT22;44977;53.132;6.408;2023-07-13T10:28:59;21.70;99.90
59208;DHT22;44977;53.132;6.408;2023-07-13T10:34:01;22.00;99.90
59208;DHT22;44977;53.132;6.408;2023-07-13T10:39:04;22.00;99.90
59208;DHT22;44977;53.132;6.408;2023-07-13T10:44:16;22.20;99.90
59208;DHT22;44977;53.132;6.408;2023-07-13T10:49:19;22.00;99.90
59208;DHT22;44977;53.132;6.408;2023-07-13T10:54:33;21.80;99.90
59208;DHT22;44977;53.132;6.408;2023-07-13T10:59:35;22.00;99.90
59208;DHT22;44977;53.132;6.408;2023-07-13T11:04:46;22.40;99.90
59208;DHT22;44977;53.132;6.408;2023-07-13T11:10:04;22.50;99.90
59208;DHT22;44977;53.132;6.408;2023-07-13T11:15:10;22.50;99.90
59208;DHT22;44977;53.132;6.408;2023-07-13T11:25:25;23.00;99.90
59208;DHT22;44977;53.132;6.408;2023-07-13T11:35:31;23.20;97.80
59208;DHT22;44977;53.132;6.408;2023-07-13T11:40:34;23.30;98.50
59208;DHT22;44977;53.132;6.408;2023-07-13T11:45:35;23.20;96.40
59208;DHT22;44977;53.132;6.408;2023-07-13T11:50:35;23.30;95.50
59208;DHT22;44977;53.132;6.408;2023-07-13T11:55:38;23.40;95.90
59208;DHT22;44977;53.132;6.408;2023-07-13T12:00:39;23.50;95.40
59208;DHT22;44977;53.132;6.408;2023-07-13T12:05:56;23.70;94.60
59208;DHT22;44977;53.132;6.408;2023-07-13T12:11:04;23.70;94.30
59208;DHT22;44977;53.132;6.408;2023-07-13T12:16:25;23.60;94.10
59208;DHT22;44977;53.132;6.408;2023-07-13T12:21:32;23.80;94.90
59208;DHT22;44977;53.132;6.408;2023-07-13T12:26:33;23.90;92.60
59208;DHT22;44977;53.132;6.408;2023-07-13T12:31:42;24.10;92.20
59208;DHT22;44977;53.132;6.408;2023-07-13T12:36:51;24.30;91.20
59208;DHT22;44977;53.132;6.408;2023-07-13T12:41:53;24.30;91.50
59208;DHT22;44977;53.132;6.408;2023-07-13T12:47:02;24.30;90.40
59208;DHT22;44977;53.132;6.408;2023-07-13T12:52:20;24.10;89.40
59208;DHT22;44977;53.132;6.408;2023-07-13T12:57:21;23.80;91.30
59208;DHT22;44977;53.132;6.408;2023-07-13T13:02:32;23.80;91.60
59208;DHT22;44977;53.132;6.408;2023-07-13T13:07:33;23.70;91.00
59208;DHT22;44977;53.132;6.408;2023-07-13T13:12:34;23.80;89.80
59208;DHT22;44977;53.132;6.408;2023-07-13T13:17:35;23.90;90.70
59208;DHT22;44977;53.132;6.408;2023-07-13T13:22:36;24.10;91.20
59208;DHT22;44977;53.132;6.408;2023-07-13T13:27:37;24.10;90.10
59208;DHT22;44977;53.132;6.408;2023-07-13T13:32:39;24.30;90.90
59208;DHT22;44977;53.132;6.408;2023-07-13T13:37:40;24.30;90.60
59208;DHT22;44977;53.132;6.408;2023-07-13T13:42:41;24.30;90.30
59208;DHT22;44977;53.132;6.408;2023-07-13T13:47:42;24.40;88.30
59208;DHT22;44977;53.132;6.408;2023-07-13T13:52:44;24.30;89.60
59208;DHT22;44977;53.132;6.408;2023-07-13T13:57:45;24.40;89.40
59208;DHT22;44977;53.132;6.408;2023-07-13T14:02:47;24.50;88.90
59208;DHT22;44977;53.132;6.408;2023-07-13T14:07:49;24.50;88.10
59208;DHT22;44977;53.132;6.408;2023-07-13T14:12:52;24.50;85.50
59208;DHT22;44977;53.132;6.408;2023-07-13T14:17:54;24.40;86.30
59208;DHT22;44977;53.132;6.408;2023-07-13T14:22:55;24.30;86.50
59208;DHT22;44977;53.132;6.408;2023-07-13T14:27:58;24.20;88.20
59208;DHT22;44977;53.132;6.408;2023-07-13T14:33:11;24.00;87.10
59208;DHT22;44977;53.132;6.408;2023-07-13T14:38:15;23.80;88.80
59208;DHT22;44977;53.132;6.408;2023-07-13T14:43:16;23.80;90.20
59208;DHT22;44977;53.132;6.408;2023-07-13T14:48:20;23.80;90.40
59208;DHT22;44977;53.132;6.408;2023-07-13T14:53:22;23.70;90.30
59208;DHT22;44977;53.132;6.408;2023-07-13T14:58:23;23.80;90.80
59208;DHT22;44977;53.132;6.408;2023-07-13T15:03:24;23.70;87.60
59208;DHT22;44977;53.132;6.408;2023-07-13T15:08:25;23.60;90.20
59208;DHT22;44977;53.132;6.408;2023-07-13T15:13:26;23.50;90.20
59208;DHT22;44977;53.132;6.408;2023-07-13T15:18:27;23.40;90.00
59208;DHT22;44977;53.132;6.408;2023-07-13T15:23:28;23.30;88.90
59208;DHT22;44977;53.132;6.408;2023-07-13T15:28:28;23.30;90.10
59208;DHT22;44977;53.132;6.408;2023-07-13T15:33:30;23.40;87.90
59208;DHT22;44977;53.132;6.408;2023-07-13T15:38:31;23.30;89.20
59208;DHT22;44977;53.132;6.408;2023-07-13T15:43:32;23.20;91.40
59208;DHT22;44977;53.132;6.408;2023-07-13T15:48:34;23.20;91.70
59208;DHT22;44977;53.132;6.408;2023-07-13T15:53:35;23.30;91.80
59208;DHT22;44977;53.132;6.408;2023-07-13T15:58:38;23.20;91.90
59208;DHT22;44977;53.132;6.408;2023-07-13T16:03:39;23.30;91.90
59208;DHT22;44977;53.132;6.408;2023-07-13T16:08:40;23.30;92.30
59208;DHT22;44977;53.132;6.408;2023-07-13T16:13:41;23.40;92.70
59208;DHT22;44977;53.132;6.408;2023-07-13T16:18:42;23.60;92.90
59208;DHT22;44977;53.132;6.408;2023-07-13T16:23:43;23.50;92.30
59208;DHT22;44977;53.132;6.408;2023-07-13T16:28:45;23.30;92.50
59208;DHT22;44977;53.132;6.408;2023-07-13T16:33:46;23.40;92.60
59208;DHT22;44977;53.132;6.408;2023-07-13T16:38:47;23.30;92.60
59208;DHT22;44977;53.132;6.408;2023-07-13T16:43:47;23.30;92.50
59208;DHT22;44977;53.132;6.408;2023-07-13T16:48:48;23.20;92.80
59208;DHT22;44977;53.132;6.408;2023-07-13T16:53:49;23.20;91.10
59208;DHT22;44977;53.132;6.408;2023-07-13T16:58:50;23.20;92.10
59208;DHT22;44977;53.132;6.408;2023-07-13T17:03:50;23.10;92.10
59208;DHT22;44977;53.132;6.408;2023-07-13T17:09:01;23.00;92.70
59208;DHT22;44977;53.132;6.408;2023-07-13T17:14:14;22.90;92.40
59208;DHT22;44977;53.132;6.408;2023-07-13T17:19:17;22.90;92.70
59208;DHT22;44977;53.132;6.408;2023-07-13T17:24:26;22.70;92.60
59208;DHT22;44977;53.132;6.408;2023-07-13T17:29:27;22.50;92.30
59208;DHT22;44977;53.132;6.408;2023-07-13T17:34:27;22.50;92.40
59208;DHT22;44977;53.132;6.408;2023-07-13T17:39:28;22.40;92.80
59208;DHT22;44977;53.132;6.408;2023-07-13T17:44:29;22.20;92.90
59208;DHT22;44977;53.132;6.408;2023-07-13T17:49:31;22.00;93.20
59208;DHT22;44977;53.132;6.408;2023-07-13T17:54:33;21.80;93.60
59208;DHT22;44977;53.132;6.408;2023-07-13T17:59:33;21.70;94.00
59208;DHT22;44977;53.132;6.408;2023-07-13T18:04:35;21.70;94.60
59208;DHT22;44977;53.132;6.408;2023-07-13T18:09:37;21.50;94.90
59208;DHT22;44977;53.132;6.408;2023-07-13T18:14:38;21.40;95.40
59208;DHT22;44977;53.132;6.408;2023-07-13T18:19:41;21.40;95.70
59208;DHT22;44977;53.132;6.408;2023-07-13T18:24:43;21.20;96.40
59208;DHT22;44977;53.132;6.408;2023-07-13T18:29:44;21.10;96.60
59208;DHT22;44977;53.132;6.408;2023-07-13T18:34:45;21.00;96.60
59208;DHT22;44977;53.132;6.408;2023-07-13T18:39:49;20.90;97.00
59208;DHT22;44977;53.132;6.408;2023-07-13T18:44:51;20.80;97.30
59208;DHT22;44977;53.132;6.408;2023-07-13T18:49:52;20.60;97.70
59208;DHT22;44977;53.132;6.408;2023-07-13T18:54:56;20.50;98.50
59208;DHT22;44977;53.132;6.408;2023-07-13T18:59:57;20.40;99.00
59208;DHT22;44977;53.132;6.408;2023-07-13T19:04:57;20.30;99.60
59208;DHT22;44977;53.132;6.408;2023-07-13T19:09:59;20.10;99.90
59208;DHT22;44977;53.132;6.408;2023-07-13T19:15:01;20.00;99.90
59208;DHT22;44977;53.132;6.408;2023-07-13T19:20:02;20.00;99.90
59208;DHT22;44977;53.132;6.408;2023-07-13T19:25:03;19.90;99.90
59208;DHT22;44977;53.132;6.408;2023-07-13T19:30:08;19.80;99.90
59208;DHT22;44977;53.132;6.408;2023-07-13T19:35:09;19.60;99.90
59208;DHT22;44977;53.132;6.408;2023-07-13T19:40:21;19.50;99.90
59208;DHT22;44977;53.132;6.408;2023-07-13T19:45:23;19.40;99.90
59208;DHT22;44977;53.132;6.408;2023-07-13T19:50:24;19.30;99.90
59208;DHT22;44977;53.132;6.408;2023-07-13T19:55:27;19.20;99.90
59208;DHT22;44977;53.132;6.408;2023-07-13T20:00:29;19.10;99.90
59208;DHT22;44977;53.132;6.408;2023-07-13T20:05:30;19.00;99.90
59208;DHT22;44977;53.132;6.408;2023-07-13T20:10:32;19.00;99.90
59208;DHT22;44977;53.132;6.408;2023-07-13T20:15:34;18.90;99.90
59208;DHT22;44977;53.132;6.408;2023-07-13T20:20:36;18.80;99.90
59208;DHT22;44977;53.132;6.408;2023-07-13T20:25:38;18.70;99.90
59208;DHT22;44977;53.132;6.408;2023-07-13T20:30:44;18.70;99.90
59208;DHT22;44977;53.132;6.408;2023-07-13T20:35:46;18.50;99.90
59208;DHT22;44977;53.132;6.408;2023-07-13T20:40:48;18.60;99.90
59208;DHT22;44977;53.132;6.408;2023-07-13T20:46:02;18.50;99.90
59208;DHT22;44977;53.132;6.408;2023-07-13T20:51:03;18.40;99.90
59208;DHT22;44977;53.132;6.408;2023-07-13T20:56:11;18.40;99.90
59208;DHT22;44977;53.132;6.408;2023-07-13T21:01:28;18.40;99.90
59208;DHT22;44977;53.132;6.408;2023-07-13T21:06:30;18.40;99.90
59208;DHT22;44977;53.132;6.408;2023-07-13T21:11:31;18.40;99.90
59208;DHT22;44977;53.132;6.408;2023-07-13T21:16:32;18.40;99.90
59208;DHT22;44977;53.132;6.408;2023-07-13T21:21:32;18.30;99.90
59208;DHT22;44977;53.132;6.408;2023-07-13T21:26:33;18.20;99.90
59208;DHT22;44977;53.132;6.408;2023-07-13T21:31:35;18.20;99.90
59208;DHT22;44977;53.132;6.408;2023-07-13T21:36:37;18.20;99.90
59208;DHT22;44977;53.132;6.408;2023-07-13T21:41:37;18.20;99.90
59208;DHT22;44977;53.132;6.408;2023-07-13T21:46:38;18.00;99.90
59208;DHT22;44977;53.132;6.408;2023-07-13T21:51:39;17.90;99.90
59208;DHT22;44977;53.132;6.408;2023-07-13T21:56:40;17.90;99.90
59208;DHT22;44977;53.132;6.408;2023-07-13T22:01:40;17.80;99.90
59208;DHT22;44977;53.132;6.408;2023-07-13T22:06:41;17.80;99.90
59208;DHT22;44977;53.132;6.408;2023-07-13T22:11:44;17.70;99.90
59208;DHT22;44977;53.132;6.408;2023-07-13T22:16:44;17.50;99.90
59208;DHT22;44977;53.132;6.408;2023-07-13T22:21:45;17.60;99.90
59208;DHT22;44977;53.132;6.408;2023-07-13T22:26:49;17.50;99.90
59208;DHT22;44977;53.132;6.408;2023-07-13T22:31:50;17.40;99.90
59208;DHT22;44977;53.132;6.408;2023-07-13T22:36:51;17.40;99.90
59208;DHT22;44977;53.132;6.408;2023-07-13T22:41:51;17.40;99.90
59208;DHT22;44977;53.132;6.408;2023-07-13T22:46:53;17.30;99.90
59208;DHT22;44977;53.132;6.408;2023-07-13T22:51:59;17.30;99.90
59208;DHT22;44977;53.132;6.408;2023-07-13T22:57:00;17.30;99.90
59208;DHT22;44977;53.132;6.408;2023-07-13T23:02:01;17.10;99.90
59208;DHT22;44977;53.132;6.408;2023-07-13T23:07:04;17.10;99.90
59208;DHT22;44977;53.132;6.408;2023-07-13T23:12:07;17.10;99.90
59208;DHT22;44977;53.132;6.408;2023-07-13T23:17:11;17.10;99.90
59208;DHT22;44977;53.132;6.408;2023-07-13T23:22:26;17.00;99.90
59208;DHT22;44977;53.132;6.408;2023-07-13T23:27:27;16.80;99.90
59208;DHT22;44977;53.132;6.408;2023-07-13T23:32:28;16.80;99.90
59208;DHT22;44977;53.132;6.408;2023-07-13T23:37:28;16.80;99.90
59208;DHT22;44977;53.132;6.408;2023-07-13T23:42:29;16.60;99.90
59208;DHT22;44977;53.132;6.408;2023-07-13T23:47:30;16.60;99.90
59208;DHT22;44977;53.132;6.408;2023-07-13T23:52:30;16.50;99.90
59208;DHT22;44977;53.132;6.408;2023-07-13T23:57:31;16.50;99.90
